AAL293O KPHX-KLAX
Flight info
| Callsign | AAL293O |
|---|---|
| Flight time | 1h 3m |
| Altitude | 36000 |
| Route | KEENS3 WLVRN ESTWD HLYWD1 |
| Aircraft | A21N/M-SDE2E3FGHIRWXY/LB1 |
Departure
| Time | 2026-04-25 00:10 |
|---|---|
| Airport | Phoenix Sky Harbor International Airport (KPHX) |
Arrival
| Time | 2026-04-25 01:14 |
|---|---|
| Airport | Los Angeles International Airport (KLAX) |
| Time | Latitude | Longitude | Altitude | Speed | Heading |
|---|---|---|---|---|---|
| 2026-04-24 23:21 | 33.43685 | -111.99882 | 1136 ft | 0 kts | 269° |
| 2026-04-24 23:53 | 33.43685 | -111.99881 | 1136 ft | 0 kts | 269° |
| 2026-04-24 23:58 | 33.43685 | -111.99866 | 1136 ft | 2 kts | 269° |
| 2026-04-24 23:58 | 33.43686 | -111.99847 | 1136 ft | 2 kts | 269° |
| 2026-04-24 23:58 | 33.43684 | -111.99831 | 1136 ft | 2 kts | 307° |
| 2026-04-24 23:59 | 33.43673 | -111.99822 | 1136 ft | 0 kts | 356° |
| 2026-04-24 23:59 | 33.43667 | -111.99823 | 1136 ft | 1 kts | 2° |
| 2026-04-24 23:59 | 33.43665 | -111.99823 | 1136 ft | 0 kts | 1° |
| 2026-04-25 00:00 | 33.43666 | -111.99823 | 1136 ft | 0 kts | 0° |
| 2026-04-25 00:01 | 33.43679 | -111.99823 | 1136 ft | 4 kts | 359° |
| 2026-04-25 00:01 | 33.43723 | -111.99824 | 1137 ft | 8 kts | 359° |
| 2026-04-25 00:01 | 33.43784 | -111.99824 | 1137 ft | 8 kts | 359° |
| 2026-04-25 00:01 | 33.43841 | -111.99825 | 1138 ft | 8 kts | 359° |
| 2026-04-25 00:02 | 33.43853 | -111.99825 | 1138 ft | 0 kts | 359° |
| 2026-04-25 00:05 | 33.43859 | -111.99825 | 1138 ft | 3 kts | 359° |
| 2026-04-25 00:05 | 33.43896 | -111.99807 | 1138 ft | 9 kts | 58° |
| 2026-04-25 00:05 | 33.43902 | -111.99700 | 1139 ft | 16 kts | 90° |
| 2026-04-25 00:05 | 33.43903 | -111.99545 | 1139 ft | 19 kts | 90° |
| 2026-04-25 00:06 | 33.43903 | -111.99390 | 1140 ft | 11 kts | 90° |
| 2026-04-25 00:06 | 33.43902 | -111.99322 | 1140 ft | 8 kts | 99° |
| 2026-04-25 00:06 | 33.43901 | -111.99249 | 1140 ft | 7 kts | 97° |
| 2026-04-25 00:06 | 33.43852 | -111.99227 | 1139 ft | 9 kts | 184° |
| 2026-04-25 00:07 | 33.43783 | -111.99229 | 1139 ft | 10 kts | 181° |
| 2026-04-25 00:07 | 33.43705 | -111.99229 | 1138 ft | 12 kts | 180° |
| 2026-04-25 00:07 | 33.43610 | -111.99228 | 1137 ft | 14 kts | 180° |
| 2026-04-25 00:07 | 33.43501 | -111.99229 | 1136 ft | 16 kts | 181° |
| 2026-04-25 00:08 | 33.43386 | -111.99233 | 1135 ft | 16 kts | 179° |
| 2026-04-25 00:08 | 33.43272 | -111.99229 | 1134 ft | 13 kts | 179° |
| 2026-04-25 00:08 | 33.43260 | -111.99229 | 1134 ft | 0 kts | 180° |
| 2026-04-25 00:08 | 33.43235 | -111.99236 | 1134 ft | 7 kts | 207° |
| 2026-04-25 00:09 | 33.43180 | -111.99295 | 1134 ft | 14 kts | 226° |
| 2026-04-25 00:09 | 33.43106 | -111.99390 | 1133 ft | 14 kts | 254° |
| 2026-04-25 00:09 | 33.43105 | -111.99410 | 1133 ft | 0 kts | 268° |
| 2026-04-25 00:09 | 33.43103 | -111.99461 | 1133 ft | 30 kts | 268° |
| 2026-04-25 00:10 | 33.43102 | -112.00012 | 1132 ft | 100 kts | 270° |
| 2026-04-25 00:10 | 33.43100 | -112.01083 | 1134 ft | 155 kts | 267° |
| 2026-04-25 00:10 | 33.43077 | -112.02409 | 1576 ft | 162 kts | 268° |
| 2026-04-25 00:10 | 33.43053 | -112.03762 | 2100 ft | 164 kts | 268° |
| 2026-04-25 00:11 | 33.43034 | -112.05129 | 2616 ft | 166 kts | 268° |
| 2026-04-25 00:11 | 33.43019 | -112.06054 | 2937 ft | 169 kts | 267° |
| 2026-04-25 00:11 | 33.42815 | -112.08010 | 3360 ft | 189 kts | 252° |
| 2026-04-25 00:11 | 33.42316 | -112.09544 | 3640 ft | 209 kts | 248° |
| 2026-04-25 00:12 | 33.41736 | -112.11224 | 4015 ft | 226 kts | 248° |
| 2026-04-25 00:12 | 33.41135 | -112.13030 | 4412 ft | 244 kts | 249° |
| 2026-04-25 00:12 | 33.40506 | -112.14992 | 4855 ft | 260 kts | 249° |
| 2026-04-25 00:12 | 33.39869 | -112.17020 | 5511 ft | 266 kts | 249° |
| 2026-04-25 00:13 | 33.39333 | -112.19136 | 6241 ft | 269 kts | 260° |
| 2026-04-25 00:13 | 33.39275 | -112.21363 | 6984 ft | 273 kts | 274° |
| 2026-04-25 00:13 | 33.39571 | -112.23607 | 7727 ft | 276 kts | 278° |
| 2026-04-25 00:13 | 33.39918 | -112.25857 | 8457 ft | 279 kts | 278° |
| 2026-04-25 00:14 | 33.40273 | -112.28146 | 9196 ft | 282 kts | 278° |
| 2026-04-25 00:14 | 33.40629 | -112.30472 | 9921 ft | 285 kts | 278° |
| 2026-04-25 00:14 | 33.40981 | -112.32808 | 10601 ft | 290 kts | 278° |
| 2026-04-25 00:14 | 33.41344 | -112.35246 | 10984 ft | 306 kts | 278° |
| 2026-04-25 00:15 | 33.41724 | -112.37814 | 11406 ft | 320 kts | 278° |
| 2026-04-25 00:15 | 33.42110 | -112.40412 | 12134 ft | 323 kts | 278° |
| 2026-04-25 00:15 | 33.42501 | -112.43040 | 12970 ft | 323 kts | 278° |
| 2026-04-25 00:15 | 33.42891 | -112.45675 | 13757 ft | 323 kts | 278° |
| 2026-04-25 00:16 | 33.43280 | -112.48315 | 14512 ft | 325 kts | 278° |
| 2026-04-25 00:16 | 33.43670 | -112.50976 | 15244 ft | 326 kts | 278° |
| 2026-04-25 00:16 | 33.44056 | -112.53616 | 15961 ft | 327 kts | 278° |
| 2026-04-25 00:16 | 33.44453 | -112.56320 | 16673 ft | 329 kts | 278° |
| 2026-04-25 00:17 | 33.44786 | -112.58993 | 17367 ft | 329 kts | 275° |
| 2026-04-25 00:17 | 33.44985 | -112.61738 | 18029 ft | 330 kts | 272° |
| 2026-04-25 00:17 | 33.45054 | -112.64457 | 18676 ft | 332 kts | 270° |
| 2026-04-25 00:17 | 33.45096 | -112.67232 | 19328 ft | 333 kts | 270° |
| 2026-04-25 00:18 | 33.45135 | -112.70007 | 19952 ft | 335 kts | 270° |
| 2026-04-25 00:18 | 33.45172 | -112.72820 | 20570 ft | 337 kts | 270° |
| 2026-04-25 00:18 | 33.45209 | -112.75595 | 21195 ft | 338 kts | 270° |
| 2026-04-25 00:18 | 33.45399 | -112.78429 | 21757 ft | 342 kts | 276° |
| 2026-04-25 00:19 | 33.45893 | -112.81221 | 22314 ft | 346 kts | 282° |
| 2026-04-25 00:19 | 33.46674 | -112.83929 | 22891 ft | 349 kts | 288° |
| 2026-04-25 00:19 | 33.47599 | -112.86622 | 23454 ft | 351 kts | 288° |
| 2026-04-25 00:19 | 33.48540 | -112.89319 | 23967 ft | 354 kts | 289° |
| 2026-04-25 00:20 | 33.49489 | -112.92028 | 24506 ft | 356 kts | 289° |
| 2026-04-25 00:20 | 33.50443 | -112.94750 | 24990 ft | 357 kts | 288° |
| 2026-04-25 00:20 | 33.51407 | -112.97497 | 25446 ft | 359 kts | 288° |
| 2026-04-25 00:20 | 33.52372 | -113.00261 | 25877 ft | 361 kts | 288° |
| 2026-04-25 00:21 | 33.53339 | -113.03035 | 26333 ft | 363 kts | 288° |
| 2026-04-25 00:21 | 33.54315 | -113.05834 | 26751 ft | 364 kts | 288° |
| 2026-04-25 00:21 | 33.55286 | -113.08621 | 27138 ft | 366 kts | 288° |
| 2026-04-25 00:21 | 33.56272 | -113.11449 | 27518 ft | 368 kts | 288° |
| 2026-04-25 00:22 | 33.57252 | -113.14264 | 27886 ft | 370 kts | 288° |
| 2026-04-25 00:22 | 33.58247 | -113.17126 | 28248 ft | 372 kts | 288° |
| 2026-04-25 00:22 | 33.59239 | -113.19986 | 28608 ft | 373 kts | 288° |
| 2026-04-25 00:22 | 33.60228 | -113.22836 | 28974 ft | 374 kts | 288° |
| 2026-04-25 00:23 | 33.61226 | -113.25720 | 29317 ft | 375 kts | 288° |
| 2026-04-25 00:23 | 33.62229 | -113.28614 | 29651 ft | 377 kts | 288° |
| 2026-04-25 00:23 | 33.63232 | -113.31519 | 29957 ft | 378 kts | 288° |
| 2026-04-25 00:23 | 33.64239 | -113.34430 | 30256 ft | 379 kts | 288° |
| 2026-04-25 00:24 | 33.65244 | -113.37341 | 30559 ft | 380 kts | 288° |
| 2026-04-25 00:24 | 33.66250 | -113.40256 | 30827 ft | 381 kts | 288° |
| 2026-04-25 00:24 | 33.67268 | -113.43208 | 31112 ft | 382 kts | 288° |
| 2026-04-25 00:24 | 33.68282 | -113.46153 | 31474 ft | 381 kts | 288° |
| 2026-04-25 00:25 | 33.69286 | -113.49065 | 31855 ft | 378 kts | 288° |
| 2026-04-25 00:25 | 33.70280 | -113.51958 | 32245 ft | 376 kts | 288° |
| 2026-04-25 00:25 | 33.71274 | -113.54845 | 32629 ft | 373 kts | 288° |
| 2026-04-25 00:25 | 33.72261 | -113.57720 | 32970 ft | 371 kts | 288° |
| 2026-04-25 00:26 | 33.73228 | -113.60553 | 33312 ft | 368 kts | 288° |
| 2026-04-25 00:26 | 33.74197 | -113.63377 | 33639 ft | 366 kts | 287° |
| 2026-04-25 00:26 | 33.75100 | -113.66017 | 33907 ft | 365 kts | 287° |
| 2026-04-25 00:26 | 33.76066 | -113.68839 | 34227 ft | 363 kts | 287° |
| 2026-04-25 00:27 | 33.77029 | -113.71669 | 34479 ft | 363 kts | 287° |
| 2026-04-25 00:27 | 33.77983 | -113.74467 | 34666 ft | 364 kts | 287° |
| 2026-04-25 00:27 | 33.78938 | -113.77279 | 34839 ft | 365 kts | 287° |
| 2026-04-25 00:27 | 33.79902 | -113.80102 | 35050 ft | 365 kts | 287° |
| 2026-04-25 00:28 | 33.80857 | -113.82903 | 35237 ft | 366 kts | 287° |
| 2026-04-25 00:28 | 33.81826 | -113.85748 | 35439 ft | 366 kts | 287° |
| 2026-04-25 00:28 | 33.82789 | -113.88580 | 35658 ft | 365 kts | 287° |
| 2026-04-25 00:28 | 33.83744 | -113.91387 | 35783 ft | 366 kts | 287° |
| 2026-04-25 00:29 | 33.85679 | -113.97080 | 35874 ft | 367 kts | 287° |
| 2026-04-25 00:29 | 33.86644 | -113.99932 | 35560 ft | 368 kts | 287° |
| 2026-04-25 00:29 | 33.87605 | -114.02776 | 35411 ft | 365 kts | 287° |
| 2026-04-25 00:30 | 33.88561 | -114.05602 | 34943 ft | 364 kts | 287° |
| 2026-04-25 00:30 | 33.89447 | -114.08412 | 34209 ft | 366 kts | 284° |
| 2026-04-25 00:30 | 33.90235 | -114.11324 | 33328 ft | 371 kts | 282° |
| 2026-04-25 00:30 | 33.90918 | -114.14319 | 32394 ft | 376 kts | 280° |
| 2026-04-25 00:31 | 33.91498 | -114.17393 | 31502 ft | 379 kts | 278° |
| 2026-04-25 00:31 | 33.92033 | -114.20483 | 30859 ft | 377 kts | 278° |
| 2026-04-25 00:31 | 33.92556 | -114.23518 | 30301 ft | 374 kts | 278° |
| 2026-04-25 00:31 | 33.93078 | -114.26565 | 29854 ft | 370 kts | 278° |
| 2026-04-25 00:32 | 33.93593 | -114.29583 | 29750 ft | 371 kts | 278° |
| 2026-04-25 00:32 | 33.94113 | -114.32651 | 29749 ft | 373 kts | 278° |
| 2026-04-25 00:32 | 33.95149 | -114.38768 | 29739 ft | 373 kts | 278° |
| 2026-04-25 00:33 | 33.96183 | -114.44900 | 29739 ft | 373 kts | 278° |
| 2026-04-25 00:33 | 33.97216 | -114.51060 | 29733 ft | 374 kts | 278° |
| 2026-04-25 00:34 | 33.98238 | -114.57176 | 29729 ft | 374 kts | 278° |
| 2026-04-25 00:34 | 33.99260 | -114.63309 | 29726 ft | 374 kts | 278° |
| 2026-04-25 00:35 | 34.00282 | -114.69462 | 29735 ft | 375 kts | 278° |
| 2026-04-25 00:35 | 34.01303 | -114.75628 | 29736 ft | 374 kts | 278° |
| 2026-04-25 00:36 | 34.02312 | -114.81747 | 29743 ft | 374 kts | 278° |
| 2026-04-25 00:36 | 34.03323 | -114.87893 | 29748 ft | 374 kts | 278° |
| 2026-04-25 00:37 | 34.04331 | -114.94036 | 29752 ft | 374 kts | 278° |
| 2026-04-25 00:37 | 34.05333 | -115.00172 | 29754 ft | 374 kts | 278° |
| 2026-04-25 00:38 | 34.06338 | -115.06317 | 29754 ft | 374 kts | 277° |
| 2026-04-25 00:38 | 34.07299 | -115.12238 | 29756 ft | 373 kts | 278° |
| 2026-04-25 00:39 | 34.08296 | -115.18374 | 29754 ft | 373 kts | 278° |
| 2026-04-25 00:39 | 34.09290 | -115.24532 | 29755 ft | 372 kts | 278° |
| 2026-04-25 00:40 | 34.10279 | -115.30653 | 29757 ft | 372 kts | 278° |
| 2026-04-25 00:40 | 34.11261 | -115.36757 | 29763 ft | 371 kts | 278° |
| 2026-04-25 00:41 | 34.12241 | -115.42883 | 29775 ft | 370 kts | 278° |
| 2026-04-25 00:41 | 34.13211 | -115.48953 | 29787 ft | 372 kts | 278° |
| 2026-04-25 00:42 | 34.14192 | -115.55138 | 29803 ft | 373 kts | 278° |
| 2026-04-25 00:42 | 34.15162 | -115.61261 | 29810 ft | 372 kts | 278° |
| 2026-04-25 00:43 | 34.15851 | -115.67417 | 29822 ft | 370 kts | 272° |
| 2026-04-25 00:43 | 34.15832 | -115.73645 | 29833 ft | 370 kts | 265° |
| 2026-04-25 00:44 | 34.15298 | -115.79799 | 29838 ft | 369 kts | 263° |
| 2026-04-25 00:44 | 34.14723 | -115.85960 | 29843 ft | 370 kts | 263° |
| 2026-04-25 00:45 | 34.14127 | -115.92139 | 29852 ft | 370 kts | 262° |
| 2026-04-25 00:45 | 34.13527 | -115.98283 | 29860 ft | 369 kts | 263° |
| 2026-04-25 00:46 | 34.12928 | -116.04426 | 29877 ft | 368 kts | 263° |
| 2026-04-25 00:47 | 34.12022 | -116.13644 | 29900 ft | 368 kts | 263° |
| 2026-04-25 00:47 | 34.11417 | -116.19758 | 29918 ft | 369 kts | 263° |
| 2026-04-25 00:48 | 34.10810 | -116.25884 | 29915 ft | 366 kts | 263° |
| 2026-04-25 00:48 | 34.10504 | -116.28912 | 29727 ft | 362 kts | 263° |
| 2026-04-25 00:48 | 34.10199 | -116.31907 | 29158 ft | 360 kts | 263° |
| 2026-04-25 00:48 | 34.09883 | -116.34860 | 28479 ft | 359 kts | 263° |
| 2026-04-25 00:49 | 34.09565 | -116.37835 | 27841 ft | 358 kts | 263° |
| 2026-04-25 00:49 | 34.09243 | -116.40824 | 27257 ft | 354 kts | 263° |
| 2026-04-25 00:49 | 34.08930 | -116.43740 | 26704 ft | 351 kts | 263° |
| 2026-04-25 00:49 | 34.08618 | -116.46621 | 26127 ft | 348 kts | 263° |
| 2026-04-25 00:50 | 34.08310 | -116.49493 | 25531 ft | 347 kts | 263° |
| 2026-04-25 00:50 | 34.07999 | -116.52367 | 24932 ft | 345 kts | 263° |
| 2026-04-25 00:50 | 34.07692 | -116.55214 | 24396 ft | 342 kts | 264° |
| 2026-04-25 00:50 | 34.07386 | -116.58063 | 23895 ft | 338 kts | 263° |
| 2026-04-25 00:51 | 34.07103 | -116.60838 | 23330 ft | 336 kts | 264° |
| 2026-04-25 00:51 | 34.06844 | -116.63646 | 22798 ft | 334 kts | 265° |
| 2026-04-25 00:51 | 34.06592 | -116.66431 | 22286 ft | 332 kts | 264° |
| 2026-04-25 00:51 | 34.06338 | -116.69182 | 21786 ft | 331 kts | 264° |
| 2026-04-25 00:52 | 34.06089 | -116.71910 | 21276 ft | 330 kts | 264° |
| 2026-04-25 00:52 | 34.05835 | -116.74646 | 20795 ft | 328 kts | 264° |
| 2026-04-25 00:52 | 34.05581 | -116.77364 | 20297 ft | 326 kts | 264° |
| 2026-04-25 00:52 | 34.05328 | -116.80072 | 19773 ft | 325 kts | 264° |
| 2026-04-25 00:53 | 34.05074 | -116.82780 | 19264 ft | 325 kts | 263° |
| 2026-04-25 00:53 | 34.04820 | -116.85487 | 18745 ft | 324 kts | 263° |
| 2026-04-25 00:53 | 34.04565 | -116.88142 | 18244 ft | 323 kts | 263° |
| 2026-04-25 00:53 | 34.04239 | -116.90820 | 17737 ft | 322 kts | 262° |
| 2026-04-25 00:54 | 34.03896 | -116.93501 | 17229 ft | 320 kts | 262° |
| 2026-04-25 00:54 | 34.03559 | -116.96104 | 16977 ft | 315 kts | 262° |
| 2026-04-25 00:54 | 34.03217 | -116.98746 | 16958 ft | 318 kts | 262° |
| 2026-04-25 00:54 | 34.02878 | -117.01353 | 16952 ft | 318 kts | 262° |
| 2026-04-25 00:55 | 34.02541 | -117.03977 | 16928 ft | 318 kts | 262° |
| 2026-04-25 00:55 | 34.02227 | -117.06625 | 16929 ft | 319 kts | 263° |
| 2026-04-25 00:55 | 34.01919 | -117.09271 | 16934 ft | 319 kts | 262° |
| 2026-04-25 00:55 | 34.01608 | -117.11915 | 16928 ft | 318 kts | 262° |
| 2026-04-25 00:56 | 34.01296 | -117.14562 | 16704 ft | 314 kts | 262° |
| 2026-04-25 00:56 | 34.00991 | -117.17131 | 16171 ft | 315 kts | 262° |
| 2026-04-25 00:56 | 34.00677 | -117.19756 | 15628 ft | 315 kts | 262° |
| 2026-04-25 00:56 | 34.00367 | -117.22354 | 15158 ft | 314 kts | 262° |
| 2026-04-25 00:57 | 34.00056 | -117.24963 | 14666 ft | 313 kts | 262° |
| 2026-04-25 00:57 | 33.99746 | -117.27544 | 14170 ft | 312 kts | 262° |
| 2026-04-25 00:57 | 33.99437 | -117.30117 | 13672 ft | 311 kts | 262° |
| 2026-04-25 00:57 | 33.99128 | -117.32717 | 13189 ft | 310 kts | 262° |
| 2026-04-25 00:58 | 33.98827 | -117.35273 | 12711 ft | 308 kts | 262° |
| 2026-04-25 00:58 | 33.98529 | -117.37817 | 12239 ft | 307 kts | 262° |
| 2026-04-25 00:58 | 33.98232 | -117.40349 | 11988 ft | 306 kts | 262° |
| 2026-04-25 00:58 | 33.97928 | -117.42923 | 11973 ft | 310 kts | 262° |
| 2026-04-25 00:59 | 33.97629 | -117.45456 | 11971 ft | 310 kts | 262° |
| 2026-04-25 00:59 | 33.97443 | -117.48062 | 11962 ft | 301 kts | 269° |
| 2026-04-25 00:59 | 33.97575 | -117.50551 | 11932 ft | 290 kts | 277° |
| 2026-04-25 00:59 | 33.97929 | -117.52859 | 11605 ft | 276 kts | 281° |
| 2026-04-25 01:00 | 33.98328 | -117.55093 | 11047 ft | 270 kts | 281° |
| 2026-04-25 01:00 | 33.98724 | -117.57294 | 10426 ft | 268 kts | 281° |
| 2026-04-25 01:00 | 33.99114 | -117.59476 | 10052 ft | 267 kts | 281° |
| 2026-04-25 01:00 | 33.99377 | -117.60950 | 9971 ft | 266 kts | 281° |
| 2026-04-25 01:01 | 34.00106 | -117.65045 | 9667 ft | 239 kts | 281° |
| 2026-04-25 01:01 | 34.00220 | -117.65691 | 9606 ft | 236 kts | 281° |
| 2026-04-25 01:01 | 34.00518 | -117.68808 | 9178 ft | 228 kts | 270° |
| 2026-04-25 01:02 | 34.00437 | -117.70732 | 8844 ft | 227 kts | 264° |
| 2026-04-25 01:02 | 34.00322 | -117.71986 | 8618 ft | 227 kts | 263° |
| 2026-04-25 01:02 | 34.00201 | -117.73231 | 8386 ft | 228 kts | 263° |
| 2026-04-25 01:03 | 33.99766 | -117.77646 | 7981 ft | 227 kts | 263° |
| 2026-04-25 01:03 | 33.99582 | -117.79519 | 7974 ft | 227 kts | 263° |
| 2026-04-25 01:04 | 33.99213 | -117.83273 | 7501 ft | 225 kts | 263° |
| 2026-04-25 01:04 | 33.98547 | -117.90123 | 6260 ft | 225 kts | 263° |
| 2026-04-25 01:04 | 33.98369 | -117.91944 | 5943 ft | 225 kts | 263° |
| 2026-04-25 01:05 | 33.98331 | -117.92324 | 5883 ft | 224 kts | 263° |
| 2026-04-25 01:05 | 33.98225 | -117.93386 | 5860 ft | 214 kts | 263° |
| 2026-04-25 01:05 | 33.98057 | -117.95091 | 5764 ft | 199 kts | 263° |
| 2026-04-25 01:05 | 33.97922 | -117.96463 | 5566 ft | 192 kts | 263° |
| 2026-04-25 01:06 | 33.97782 | -117.97910 | 5267 ft | 190 kts | 263° |
| 2026-04-25 01:06 | 33.97619 | -117.99548 | 4987 ft | 186 kts | 263° |
| 2026-04-25 01:06 | 33.97462 | -118.01128 | 4978 ft | 188 kts | 263° |
| 2026-04-25 01:06 | 33.97306 | -118.02700 | 4976 ft | 189 kts | 263° |
| 2026-04-25 01:07 | 33.97152 | -118.04256 | 4973 ft | 189 kts | 263° |
| 2026-04-25 01:07 | 33.96995 | -118.05830 | 4839 ft | 185 kts | 263° |
| 2026-04-25 01:07 | 33.96845 | -118.07360 | 4389 ft | 186 kts | 262° |
| 2026-04-25 01:07 | 33.96691 | -118.08916 | 3883 ft | 188 kts | 262° |
| 2026-04-25 01:08 | 33.96534 | -118.10485 | 3395 ft | 189 kts | 262° |
| 2026-04-25 01:08 | 33.96376 | -118.12068 | 2916 ft | 190 kts | 262° |
| 2026-04-25 01:08 | 33.96222 | -118.13624 | 2474 ft | 188 kts | 262° |
| 2026-04-25 01:08 | 33.96067 | -118.15185 | 2081 ft | 185 kts | 261° |
| 2026-04-25 01:09 | 33.95919 | -118.16670 | 1879 ft | 176 kts | 261° |
| 2026-04-25 01:09 | 33.95778 | -118.18151 | 1882 ft | 176 kts | 262° |
| 2026-04-25 01:09 | 33.95654 | -118.19574 | 1846 ft | 164 kts | 261° |
| 2026-04-25 01:09 | 33.95526 | -118.20938 | 1859 ft | 163 kts | 261° |
| 2026-04-25 01:10 | 33.95391 | -118.22291 | 1864 ft | 164 kts | 260° |
| 2026-04-25 01:10 | 33.95251 | -118.23649 | 1862 ft | 164 kts | 260° |
| 2026-04-25 01:10 | 33.95108 | -118.25012 | 1860 ft | 163 kts | 260° |
| 2026-04-25 01:10 | 33.94967 | -118.26366 | 1861 ft | 163 kts | 260° |
| 2026-04-25 01:11 | 33.94832 | -118.27666 | 1812 ft | 150 kts | 260° |
| 2026-04-25 01:11 | 33.94702 | -118.28910 | 1606 ft | 147 kts | 259° |
| 2026-04-25 01:11 | 33.94576 | -118.30118 | 1418 ft | 146 kts | 260° |
| 2026-04-25 01:11 | 33.94450 | -118.31340 | 1231 ft | 146 kts | 260° |
| 2026-04-25 01:12 | 33.94326 | -118.32555 | 1045 ft | 145 kts | 260° |
| 2026-04-25 01:12 | 33.94203 | -118.33742 | 858 ft | 143 kts | 261° |
| 2026-04-25 01:12 | 33.94081 | -118.34924 | 667 ft | 141 kts | 261° |
| 2026-04-25 01:12 | 33.93959 | -118.36105 | 483 ft | 141 kts | 261° |
| 2026-04-25 01:13 | 33.93840 | -118.37270 | 290 ft | 140 kts | 261° |
| 2026-04-25 01:13 | 33.93726 | -118.38425 | 131 ft | 139 kts | 261° |
| 2026-04-25 01:13 | 33.93606 | -118.39481 | 113 ft | 108 kts | 261° |
| 2026-04-25 01:13 | 33.93544 | -118.40183 | 124 ft | 60 kts | 265° |
| 2026-04-25 01:14 | 33.93566 | -118.40552 | 130 ft | 30 kts | 290° |
| 2026-04-25 01:14 | 33.93594 | -118.40784 | 133 ft | 26 kts | 275° |
| 2026-04-25 01:14 | 33.93610 | -118.40852 | 134 ft | 0 kts | 291° |
| 2026-04-25 01:14 | 33.93610 | -118.40853 | 134 ft | 0 kts | 291° |
| 2026-04-25 01:15 | 33.93628 | -118.40884 | 134 ft | 8 kts | 329° |
| 2026-04-25 01:15 | 33.93710 | -118.40906 | 135 ft | 13 kts | 2° |
| 2026-04-25 01:15 | 33.93749 | -118.40910 | 135 ft | 0 kts | 352° |
| 2026-04-25 01:16 | 33.93758 | -118.40910 | 135 ft | 2 kts | 358° |
| 2026-04-25 01:17 | 33.93786 | -118.40885 | 136 ft | 8 kts | 72° |
| 2026-04-25 01:17 | 33.93791 | -118.40826 | 136 ft | 13 kts | 82° |
| 2026-04-25 01:17 | 33.93868 | -118.40760 | 134 ft | 2 kts | 353° |
| 2026-04-25 01:17 | 33.93868 | -118.40745 | 134 ft | 4 kts | 131° |
| 2026-04-25 01:18 | 33.93819 | -118.40667 | 135 ft | 20 kts | 105° |
| 2026-04-25 01:18 | 33.93854 | -118.40540 | 132 ft | 6 kts | 357° |
| 2026-04-25 01:18 | 33.93909 | -118.40537 | 131 ft | 10 kts | 2° |
| 2026-04-25 01:18 | 33.93990 | -118.40550 | 131 ft | 11 kts | 323° |
| 2026-04-25 01:19 | 33.93998 | -118.40586 | 132 ft | 2 kts | 265° |
| 2026-04-25 01:19 | 33.93997 | -118.40595 | 132 ft | 0 kts | 264° |